KAHN Airport Information

Runway Information
Runway 02 Length 4000 ft width 100 ft
Elevation 775 ft Threshold 0 ft Heading 21
Runway 20 Length 4000 ft Width 100 ft
Elevation 803 ft Threshold 0 ft Heading 201
Runway 09 Length 5522 ft width 100 ft
Elevation 755 ft Threshold 0 ft Heading 88
Runway 27 Length 5522 ft Width 100 ft
Elevation 808 ft Threshold 0 ft Heading 268
Airport Frequencies
Type A/D Name ATLANTA AP Frequency 127.5 MHZ
Type ASOS Name ASOS Frequency 132.875 MHZ
Type CLD Name ATLANTA CN Frequency 127.5 MHZ
Type CTAF Name CTAF Frequency 126.3 MHZ
Type GND Name GND Frequency 121.8 MHZ
Type RDO Name MACON RDO Frequency 109.6 MHZ
Type TWR Name TWR Frequency 126.3 MHZ
Type UNIC Name UNICOM Frequency 122.95 MHZ
Airport Navaids
Type VORTAC Name Athens Frequency 109600 KHZ
Type NDB Name Bulldog Frequency 221 KHZ
Airport Weather Information & NOTAM
ADDS - METARS form results

(1539 UTC 25 June 2018)
 
METAR text: KAHN 251451Z VRB03KT 10SM CLR 31/24 A3012 RMK AO2 SLP191 T03060244 53004
Conditions at: KAHN (ATHENS , GA, US) observed 1451 UTC 25 June 2018
Temperature: 30.6°C (87°F)
Dewpoint: 24.4°C (76°F) [RH = 70%]
Pressure (altimeter): 30.12 inches Hg (1020.1 mb)
[Sea-level pressure: 1019.1 mb]
Winds: variable direction winds at 3 MPH (3 knots; 1.6 m/s)
Visibility: 10 or more miles (16+ km)
Ceiling: at least 12,000 feet AGL
Clouds: sky clear below 12,000 feet AGL
Weather: no significant weather observed at this time